Century, Florida
Current Conditions -  °F | °C
As of 1:56 PM on Saturday 25 Oct 2014 (Local Time) from KNSE Reporting Station
Clear Clear  
Wind Chill: 77°   Ceiling: Unl
Heat Index: 78°   Visibility: 10mi
Dew Point: 48°   Wind: 10mph
Humidity: 36%   Direction: 340°NNW
Pressure: 30.05"   Gusts: NA
Location:  30.97°N, 87.26°W
Report Text: KNSE 251856Z 34009KT 10SM CLR 25/09 A3005 RMK AO2 SLP161 T02500089 $
Loading
Personal Weather Stations






























Interactive Weather Map
Tropical Storm Tracking
New forecast layout! Learn more

10-Day Weather Forecast

Advertisements
Track Severe Weather on mobile